Time;durP1;ratioP1;P1;durP2;ratioP2;P2;SDS_P1;SDS_P2;PMS_P1;PMS_P2;Temp;Humidity;BMP_temperature;BMP_pressure;BME280_temperature;BME280_humidity;BME280_pressure;Samples;Min_cycle;Max_cycle;Signal;HPM_P1;HPM_P2
2022/02/26 00:00:46;;;;;;;19.30;9.20;;;;;;;0.68;68.61;101063.13;89006;1284;85835;-80
2022/02/26 00:02:52;;;;;;;21.60;9.80;;;;;;;0.69;68.88;101064.69;88833;1284;93958;-64
2022/02/26 00:04:58;;;;;;;17.70;8.00;;;;;;;0.72;68.98;101065.87;88839;1284;78272;-64
2022/02/26 00:07:08;;;;;;;18.70;8.90;;;;;;;0.75;69.02;101069.02;88849;1284;82288;-64
2022/02/26 00:09:13;;;;;;;20.40;9.80;;;;;;;0.77;69.14;101072.02;88838;1284;97582;-79
2022/02/26 00:11:19;;;;;;;21.50;9.10;;;;;;;0.81;69.15;101072.98;88721;1285;89156;-80
2022/02/26 00:13:28;;;;;;;19.20;9.70;;;;;;;0.86;69.28;101073.67;88745;1285;93155;-64
2022/02/26 00:15:37;;;;;;;15.80;8.50;;;;;;;0.89;69.32;101076.30;88647;1287;82144;-64
2022/02/26 00:17:46;;;;;;;18.90;8.90;;;;;;;0.92;69.32;101078.55;88853;1284;80909;-64
2022/02/26 00:19:51;;;;;;;20.80;9.30;;;;;;;0.98;69.24;101079.69;88656;1286;100367;-64
2022/02/26 00:21:58;;;;;;;20.90;9.40;;;;;;;1.03;69.37;101078.77;88903;1283;88256;-65
2022/02/26 00:24:04;;;;;;;20.10;8.60;;;;;;;1.05;69.39;101079.70;88927;1284;95249;-80
2022/02/26 00:26:13;;;;;;;16.00;8.60;;;;;;;1.08;69.25;101076.11;88928;1284;78035;-80
2022/02/26 00:28:20;;;;;;;20.10;9.70;;;;;;;1.10;69.32;101081.08;88956;1284;81989;-79
2022/02/26 00:30:26;;;;;;;21.20;9.30;;;;;;;1.11;69.31;101079.64;88883;1284;98947;-80
2022/02/26 00:32:31;;;;;;;19.80;9.90;;;;;;;1.13;69.32;101081.65;88957;1283;88328;-64
2022/02/26 00:34:40;;;;;;;23.40;9.50;;;;;;;1.17;69.26;101079.38;88919;1283;94403;-64
2022/02/26 00:36:46;;;;;;;22.70;10.40;;;;;;;1.23;69.23;101085.32;88896;1284;78577;-64
2022/02/26 00:38:55;;;;;;;20.60;9.30;;;;;;;1.27;69.30;101083.61;88953;1284;81926;-80
2022/02/26 00:41:01;;;;;;;18.90;9.30;;;;;;;1.28;69.26;101085.48;88942;1284;97741;-79
2022/02/26 00:43:06;;;;;;;19.10;8.90;;;;;;;1.32;69.30;101087.46;88936;1284;86587;-65
2022/02/26 00:45:12;;;;;;;21.50;9.40;;;;;;;1.37;69.35;101085.02;88906;1284;93848;-65
2022/02/26 00:47:18;;;;;;;23.20;9.40;;;;;;;1.43;69.18;101085.39;88913;1283;80997;-64
2022/02/26 00:51:50;;;;;;;19.40;9.20;;;;;;;1.58;69.17;101088.20;88923;1284;98886;-66
2022/02/26 00:53:56;;;;;;;22.40;9.30;;;;;;;1.65;69.26;101086.37;88910;1284;89236;-65
2022/02/26 00:56:02;;;;;;;20.40;9.60;;;;;;;1.72;69.14;101091.02;88893;1284;93562;-64
2022/02/26 00:58:11;;;;;;;19.30;9.10;;;;;;;1.80;69.10;101092.33;88931;1284;77629;-65
2022/02/26 01:00:18;;;;;;;17.90;8.80;;;;;;;1.87;69.07;101096.42;88958;1284;80646;-65
2022/02/26 01:02:24;;;;;;;20.90;9.70;;;;;;;1.93;69.01;101097.80;88925;1283;99378;-65
2022/02/26 01:04:34;;;;;;;20.50;10.10;;;;;;;1.95;69.01;101097.80;88933;1284;87306;-64
2022/02/26 01:06:42;;;;;;;22.60;10.20;;;;;;;2.00;68.87;101100.95;88904;1284;92868;-64
2022/02/26 01:08:48;;;;;;;23.40;10.30;;;;;;;2.03;68.76;101100.75;88740;1284;79010;-77
2022/02/26 01:10:55;;;;;;;21.30;9.80;;;;;;;2.05;68.67;101101.64;88946;1284;80841;-78
2022/02/26 01:13:01;;;;;;;20.00;10.00;;;;;;;2.06;68.62;101098.55;88927;1284;99194;-64
2022/02/26 01:15:09;;;;;;;19.40;9.70;;;;;;;2.05;68.58;101102.89;88916;1284;87830;-64
2022/02/26 01:17:17;;;;;;;22.50;10.30;;;;;;;2.05;68.46;101101.45;88873;1284;94686;-77
2022/02/26 01:19:23;;;;;;;23.40;10.90;;;;;;;2.06;68.47;101101.59;88929;1283;79158;-78
2022/02/26 01:21:28;;;;;;;20.60;9.80;;;;;;;2.05;68.43;101103.38;88929;1284;81241;-78
2022/02/26 01:23:34;;;;;;;21.60;10.40;;;;;;;2.06;68.40;101106.16;88912;1284;98673;-64
2022/02/26 01:25:46;;;;;;;16.50;9.40;;;;;;;2.07;68.34;101108.71;88822;1284;89468;-64
2022/02/26 01:27:55;;;;;;;19.00;9.80;;;;;;;2.08;68.29;101105.98;88871;1283;92196;-64
2022/02/26 01:30:07;;;;;;;22.60;9.30;;;;;;;2.10;68.34;101106.94;88850;1283;81827;-65
2022/02/26 01:32:15;;;;;;;23.10;10.40;;;;;;;2.13;68.40;101108.66;88674;1287;79846;-79
2022/02/26 01:34:21;;;;;;;20.30;10.00;;;;;;;2.15;68.51;101113.98;88885;1284;97844;-79
2022/02/26 01:36:27;;;;;;;18.00;9.30;;;;;;;2.20;68.39;101115.04;88860;1283;88766;-79
2022/02/26 01:38:34;;;;;;;20.50;9.20;;;;;;;2.25;68.45;101116.58;88749;1285;96996;-78
2022/02/26 01:40:39;;;;;;;19.20;10.40;;;;;;;2.29;68.50;101116.40;88863;1283;81052;-79
2022/02/26 01:42:45;;;;;;;17.70;10.00;;;;;;;2.34;68.48;101117.25;88880;1284;80642;-78
2022/02/26 01:44:53;;;;;;;19.50;9.90;;;;;;;2.37;68.42;101120.58;88889;1283;99227;-78
2022/02/26 01:47:02;;;;;;;21.10;10.40;;;;;;;2.39;68.44;101119.36;88904;1283;87167;-78
2022/02/26 01:49:08;;;;;;;20.70;11.50;;;;;;;2.40;68.44;101126.08;88763;1284;94079;-64
2022/02/26 01:51:17;;;;;;;22.20;11.00;;;;;;;2.41;68.40;101122.26;88870;1284;79478;-64
2022/02/26 01:53:25;;;;;;;23.40;12.10;;;;;;;2.39;68.28;101120.41;88712;1285;84550;-79
2022/02/26 01:55:34;;;;;;;18.50;9.60;;;;;;;2.38;68.20;101117.50;88932;1284;99497;-77
2022/02/26 01:57:44;;;;;;;21.60;11.40;;;;;;;2.38;68.16;101117.33;88932;1284;89580;-78
2022/02/26 01:59:53;;;;;;;21.60;10.40;;;;;;;2.36;68.19;101119.58;88752;1285;93859;-77
2022/02/26 02:01:59;;;;;;;20.30;10.50;;;;;;;2.34;68.16;101125.79;88912;1284;78160;-77
2022/02/26 02:04:06;;;;;;;20.70;10.10;;;;;;;2.32;68.24;101128.83;88947;1284;82773;-78
2022/02/26 02:06:17;;;;;;;22.20;10.70;;;;;;;2.31;68.12;101133.34;88884;1283;100325;-79
2022/02/26 02:08:23;;;;;;;23.00;10.50;;;;;;;2.29;68.13;101135.97;88939;1284;87646;-64
2022/02/26 02:10:34;;;;;;;24.40;10.30;;;;;;;2.27;68.18;101134.38;88921;1284;95902;-65
2022/02/26 02:12:42;;;;;;;19.10;10.00;;;;;;;2.23;68.20;101133.40;88879;1283;81063;-80
2022/02/26 02:14:48;;;;;;;21.70;10.60;;;;;;;2.19;68.36;101134.94;88931;1284;80779;-80
2022/02/26 02:16:57;;;;;;;19.10;10.00;;;;;;;2.16;68.37;101132.38;88906;1284;99371;-79
2022/02/26 02:19:10;;;;;;;21.40;9.90;;;;;;;2.14;68.44;101138.70;88930;1284;87903;-80
2022/02/26 02:21:19;;;;;;;16.70;9.30;;;;;;;2.12;68.52;101144.23;88911;1283;93100;-79
2022/02/26 02:23:25;;;;;;;20.30;9.60;;;;;;;2.11;68.50;101150.92;88905;1284;79743;-64
2022/02/26 02:25:36;;;;;;;21.40;9.60;;;;;;;2.11;68.66;101157.80;88915;1284;80616;-64
2022/02/26 02:27:45;;;;;;;20.80;9.70;;;;;;;2.10;68.72;101160.23;88903;1283;100493;-80
2022/02/26 02:29:52;;;;;;;21.10;10.30;;;;;;;2.10;68.81;101160.55;88970;1284;87194;-79
2022/02/26 02:32:01;;;;;;;22.50;11.20;;;;;;;2.15;68.75;101163.23;88975;1283;94421;-80
2022/02/26 02:34:06;;;;;;;21.60;10.30;;;;;;;2.18;68.69;101164.04;88914;1283;80459;-64
2022/02/26 02:36:12;;;;;;;21.30;10.20;;;;;;;2.19;68.82;101164.34;88922;1283;80521;-64
2022/02/26 02:38:19;;;;;;;16.70;9.70;;;;;;;2.18;68.83;101165.83;88915;1284;99629;-64
2022/02/26 02:40:26;;;;;;;21.80;10.40;;;;;;;2.17;68.86;101171.42;88918;1283;88899;-64
2022/02/26 02:42:35;;;;;;;23.60;11.30;;;;;;;2.14;68.81;101171.43;88895;1283;96184;-64
2022/02/26 02:44:41;;;;;;;23.40;11.30;;;;;;;2.13;68.76;101174.56;88900;1283;77914;-64
2022/02/26 02:46:46;;;;;;;20.10;9.60;;;;;;;2.10;68.91;101179.94;88902;1284;84073;-64
2022/02/26 02:48:52;;;;;;;20.60;9.50;;;;;;;2.08;68.82;101182.75;88907;1284;99012;-64
2022/02/26 02:50:58;;;;;;;20.60;11.40;;;;;;;2.05;68.95;101185.10;88869;1284;86217;-64
2022/02/26 02:53:06;;;;;;;24.10;10.30;;;;;;;2.03;69.02;101188.08;88884;1284;94458;-80
2022/02/26 02:55:15;;;;;;;19.20;10.00;;;;;;;2.01;68.96;101195.70;88799;1284;78940;-79
2022/02/26 02:57:21;;;;;;;21.20;9.70;;;;;;;1.97;69.08;101195.98;88914;1283;82358;-64
2022/02/26 02:59:26;;;;;;;22.40;9.90;;;;;;;1.97;69.13;101203.45;88860;1284;101029;-64
2022/02/26 03:01:33;;;;;;;20.00;10.60;;;;;;;1.97;69.18;101201.51;88899;1283;88406;-64
2022/02/26 03:03:38;;;;;;;18.00;9.50;;;;;;;1.97;69.33;101205.80;88860;1284;93208;-64
2022/02/26 03:05:44;;;;;;;21.30;9.50;;;;;;;1.99;69.42;101206.34;88899;1284;81210;-64
2022/02/26 03:07:51;;;;;;;21.80;10.70;;;;;;;2.02;69.52;101208.09;88880;1284;81204;-80
2022/02/26 03:09:56;;;;;;;24.30;10.70;;;;;;;2.04;69.46;101210.45;88905;1283;100198;-80
2022/02/26 03:12:03;;;;;;;19.90;10.10;;;;;;;2.05;69.54;101217.23;88934;1284;86463;-79
2022/02/26 03:14:11;;;;;;;23.00;10.50;;;;;;;2.08;69.63;101216.36;88879;1284;94393;-65
2022/02/26 03:16:20;;;;;;;20.80;10.00;;;;;;;2.11;69.60;101223.52;88890;1283;79714;-64
2022/02/26 03:18:29;;;;;;;22.20;10.30;;;;;;;2.14;69.55;101225.95;88940;1284;83395;-79
2022/02/26 03:20:35;;;;;;;24.30;10.20;;;;;;;2.19;69.49;101227.94;88943;1284;100282;-80
2022/02/26 03:22:47;;;;;;;20.80;10.10;;;;;;;2.22;69.46;101227.13;88971;1284;89346;-64
2022/02/26 03:24:55;;;;;;;20.50;10.90;;;;;;;2.20;69.49;101228.15;88875;1284;94308;-64
2022/02/26 03:27:05;;;;;;;22.50;10.30;;;;;;;2.19;69.47;101232.70;88917;1284;77360;-64
2022/02/26 03:29:11;;;;;;;20.30;10.20;;;;;;;2.14;69.49;101234.17;88956;1284;80856;-79
2022/02/26 03:31:19;;;;;;;20.00;11.00;;;;;;;2.11;69.47;101238.30;88927;1284;98685;-77
2022/02/26 03:33:25;;;;;;;21.50;10.70;;;;;;;2.08;69.54;101242.08;88938;1284;88011;-79
2022/02/26 03:35:31;;;;;;;18.70;10.90;;;;;;;2.03;69.54;101244.39;88815;1284;95113;-78
2022/02/26 03:37:37;;;;;;;20.60;11.30;;;;;;;1.98;69.63;101245.55;88597;1284;331737;-65
2022/02/26 03:39:46;;;;;;;21.40;10.30;;;;;;;1.90;69.63;101244.52;88868;1284;82378;-64
2022/02/26 03:41:52;;;;;;;19.90;10.70;;;;;;;1.83;69.63;101251.62;88874;1284;99764;-63
2022/02/26 03:43:57;;;;;;;19.20;10.70;;;;;;;1.77;69.67;101254.52;88789;1285;88280;-77
2022/02/26 03:46:03;;;;;;;20.00;10.70;;;;;;;1.72;69.79;101258.80;88859;1284;95975;-77
2022/02/26 03:48:09;;;;;;;21.00;11.50;;;;;;;1.68;69.96;101258.52;88891;1283;78316;-64
2022/02/26 03:50:17;;;;;;;20.50;10.10;;;;;;;1.64;70.09;101259.38;88865;1283;83358;-64
2022/02/26 03:52:23;;;;;;;21.10;10.80;;;;;;;1.61;70.22;101263.35;88867;1284;100607;-78
2022/02/26 03:54:28;;;;;;;21.70;10.70;;;;;;;1.59;70.12;101267.02;88882;1284;88469;-78
2022/02/26 03:56:34;;;;;;;19.90;10.30;;;;;;;1.59;70.27;101270.91;88871;1284;95349;-80
2022/02/26 03:58:42;;;;;;;22.50;10.60;;;;;;;1.58;70.26;101276.33;88779;1284;79589;-81
2022/02/26 04:00:52;;;;;;;18.40;9.90;;;;;;;1.59;70.43;101283.70;88919;1283;80021;-79
2022/02/26 04:02:57;;;;;;;20.90;10.90;;;;;;;1.64;70.43;101289.21;88902;1284;101065;-80
2022/02/26 04:05:07;;;;;;;17.60;9.60;;;;;;;1.67;70.36;101292.70;88880;1284;89585;-80
2022/02/26 04:07:16;;;;;;;21.30;10.50;;;;;;;1.70;70.46;101294.41;88798;1283;94002;-79
2022/02/26 04:09:22;;;;;;;17.90;10.00;;;;;;;1.73;70.44;101299.17;88786;1285;77698;-79
2022/02/26 04:11:31;;;;;;;22.00;10.20;;;;;;;1.74;70.53;101297.88;88783;1284;80067;-80
2022/02/26 04:13:40;;;;;;;22.70;10.60;;;;;;;1.75;70.55;101300.45;88802;1285;101216;-65
2022/02/26 04:15:45;;;;;;;17.70;10.30;;;;;;;1.76;70.59;101303.59;88788;1285;89680;-64
2022/02/26 04:17:51;;;;;;;22.20;10.60;;;;;;;1.76;70.66;101308.02;88770;1284;95262;-64
2022/02/26 04:19:58;;;;;;;19.90;9.70;;;;;;;1.76;70.68;101309.75;88772;1285;79191;-64
2022/02/26 04:22:17;;;;;;;19.70;10.50;;;;;;;1.78;70.68;101313.73;88792;1284;81735;-64
2022/02/26 04:24:23;;;;;;;21.20;9.40;;;;;;;1.78;70.78;101314.83;88723;1284;99448;-64
2022/02/26 04:26:29;;;;;;;22.20;10.10;;;;;;;1.77;70.80;101319.86;88767;1285;87404;-64
2022/02/26 04:28:38;;;;;;;22.20;9.70;;;;;;;1.78;70.95;101322.10;88777;1284;95621;-64
2022/02/26 04:30:44;;;;;;;20.10;9.60;;;;;;;1.78;70.88;101328.80;88759;1284;78898;-64
2022/02/26 04:32:50;;;;;;;16.70;8.50;;;;;;;1.83;71.03;101334.23;88813;1285;82781;-80
2022/02/26 04:34:59;;;;;;;18.70;9.70;;;;;;;1.84;70.92;101336.92;88808;1285;100250;-79
2022/02/26 04:37:07;;;;;;;21.80;10.30;;;;;;;1.86;70.92;101336.81;88822;1285;86826;-76
2022/02/26 04:39:13;;;;;;;24.90;11.50;;;;;;;1.88;71.08;101338.96;88761;1285;94248;-79
2022/02/26 04:41:18;;;;;;;19.10;10.40;;;;;;;1.91;70.97;101337.52;88799;1284;78946;-78
2022/02/26 04:43:24;;;;;;;21.90;10.70;;;;;;;1.87;70.93;101339.70;88847;1284;80839;-64
2022/02/26 04:45:30;;;;;;;22.70;11.30;;;;;;;1.86;70.96;101344.25;88761;1284;98943;-64
2022/02/26 04:47:36;;;;;;;18.80;10.80;;;;;;;1.83;71.07;101350.16;88659;1286;89560;-64
2022/02/26 04:49:42;;;;;;;19.80;11.00;;;;;;;1.77;71.06;101354.42;88796;1285;94484;-64
2022/02/26 04:51:47;;;;;;;22.70;11.00;;;;;;;1.74;70.97;101352.59;88794;1285;79521;-64
2022/02/26 04:53:53;;;;;;;21.20;11.30;;;;;;;1.68;70.99;101359.25;88650;1287;81032;-65
2022/02/26 04:55:58;;;;;;;21.80;11.30;;;;;;;1.63;71.06;101359.79;88798;1285;99588;-64
2022/02/26 04:58:04;;;;;;;20.80;10.30;;;;;;;1.54;71.03;101364.35;88810;1284;89218;-64
2022/02/26 05:00:12;;;;;;;20.60;10.90;;;;;;;1.45;71.17;101364.75;88773;1285;96641;-64
2022/02/26 05:02:18;;;;;;;22.20;10.50;;;;;;;1.38;71.15;101371.10;88796;1284;79659;-64
2022/02/26 05:04:23;;;;;;;19.70;9.40;;;;;;;1.31;71.27;101372.91;88801;1284;84091;-65
2022/02/26 05:06:32;;;;;;;22.00;10.00;;;;;;;1.19;71.33;101379.19;88790;1284;97242;-64
2022/02/26 05:08:40;;;;;;;17.90;9.20;;;;;;;1.09;71.42;101380.05;88803;1284;88925;-80
2022/02/26 05:10:49;;;;;;;19.40;9.70;;;;;;;1.01;71.58;101383.49;88802;1284;94097;-79
2022/02/26 05:12:55;;;;;;;22.00;9.60;;;;;;;0.92;71.59;101386.02;88803;1284;81662;-64
2022/02/26 05:15:04;;;;;;;18.80;10.30;;;;;;;0.89;71.78;101393.20;88787;1284;81286;-66
2022/02/26 05:17:10;;;;;;;20.10;10.70;;;;;;;0.88;71.75;101394.48;88784;1285;99474;-65
2022/02/26 05:19:15;;;;;;;18.70;9.60;;;;;;;0.88;71.96;101392.19;88858;1283;86764;-64
2022/02/26 05:21:21;;;;;;;19.20;9.60;;;;;;;0.87;72.05;101392.22;88829;1284;94739;-64
2022/02/26 05:23:30;;;;;;;18.40;10.30;;;;;;;0.83;72.09;101392.31;88863;1284;79129;-79
2022/02/26 05:25:35;;;;;;;17.50;9.40;;;;;;;0.76;72.04;101392.46;88877;1284;82312;-79
2022/02/26 05:27:42;;;;;;;19.00;10.30;;;;;;;0.68;72.17;101392.87;88852;1284;100697;-64
2022/02/26 05:29:48;;;;;;;21.10;10.00;;;;;;;0.59;72.22;101400.36;88862;1284;88271;-64
2022/02/26 05:31:56;;;;;;;18.80;10.10;;;;;;;0.47;72.32;101402.87;88681;1285;96435;-64
2022/02/26 05:34:02;;;;;;;18.30;9.90;;;;;;;0.38;72.30;101407.59;88811;1285;79937;-79
2022/02/26 05:36:11;;;;;;;21.80;9.60;;;;;;;0.28;72.51;101411.81;88830;1284;83381;-80
2022/02/26 05:38:17;;;;;;;20.80;10.60;;;;;;;0.18;72.61;101413.51;88685;1285;101327;-80
2022/02/26 05:40:22;;;;;;;19.20;9.40;;;;;;;0.09;72.60;101414.60;88834;1284;88196;-80
2022/02/26 05:42:28;;;;;;;20.60;9.30;;;;;;;0.02;72.79;101419.30;88805;1285;95082;-79
2022/02/26 05:44:33;;;;;;;21.40;10.10;;;;;;;-0.06;72.83;101419.81;88751;1284;79344;-79
2022/02/26 05:46:39;;;;;;;17.40;9.80;;;;;;;-0.13;73.01;101423.98;88819;1285;81361;-79
2022/02/26 05:48:45;;;;;;;19.90;8.80;;;;;;;-0.15;73.14;101429.39;88817;1285;100247;-79
2022/02/26 05:50:50;;;;;;;17.40;9.80;;;;;;;-0.16;73.21;101426.83;88647;1287;87251;-79
2022/02/26 05:52:56;;;;;;;19.60;9.10;;;;;;;-0.17;73.09;101429.16;88789;1284;94449;-64
2022/02/26 05:55:02;;;;;;;17.70;9.50;;;;;;;-0.19;73.15;101432.67;88821;1284;80816;-64
2022/02/26 05:57:10;;;;;;;18.10;9.20;;;;;;;-0.22;73.55;101432.71;88875;1284;82154;-70
2022/02/26 05:59:16;;;;;;;19.00;8.80;;;;;;;-0.25;73.42;101438.21;88759;1284;101090;-66
2022/02/26 06:01:24;;;;;;;19.10;9.00;;;;;;;-0.27;73.56;101440.80;88858;1284;87575;-64
2022/02/26 06:03:32;;;;;;;19.50;9.40;;;;;;;-0.25;73.57;101448.85;88846;1284;92408;-65
2022/02/26 06:05:38;;;;;;;18.00;9.10;;;;;;;-0.24;73.75;101448.41;88867;1284;78262;-64
2022/02/26 06:07:43;;;;;;;17.80;9.10;;;;;;;-0.19;73.77;101454.60;88875;1284;82794;-64
2022/02/26 06:09:49;;;;;;;15.80;8.40;;;;;;;-0.16;73.86;101456.59;88850;1284;99470;-64
2022/02/26 06:11:54;;;;;;;17.40;8.90;;;;;;;-0.14;73.89;101461.21;88852;1284;89268;-65
2022/02/26 06:14:00;;;;;;;19.60;9.00;;;;;;;-0.06;74.12;101468.66;88810;1284;94341;-65
2022/02/26 06:16:06;;;;;;;20.40;9.30;;;;;;;0.03;74.03;101470.60;88855;1284;79909;-64
2022/02/26 06:18:12;;;;;;;16.60;9.00;;;;;;;0.11;74.23;101473.98;88855;1283;80912;-79
2022/02/26 06:20:21;;;;;;;17.10;8.90;;;;;;;0.19;74.18;101478.62;88856;1284;100167;-79
2022/02/26 06:22:27;;;;;;;19.80;8.80;;;;;;;0.38;74.38;101486.41;88824;1284;88145;-79
2022/02/26 06:24:33;;;;;;;16.40;8.20;;;;;;;0.74;74.41;101491.35;88749;1285;94765;-79
2022/02/26 06:26:38;;;;;;;19.50;9.70;;;;;;;1.33;74.73;101499.98;88863;1284;79776;-79
2022/02/26 06:28:47;;;;;;;17.50;9.60;;;;;;;1.90;74.81;101501.34;88843;1284;79862;-79
2022/02/26 06:30:53;;;;;;;18.70;9.40;;;;;;;2.45;74.39;101501.41;88839;1285;101818;-79
2022/02/26 06:32:59;;;;;;;16.20;9.20;;;;;;;2.83;73.76;101504.71;88853;1285;89295;-79
2022/02/26 06:35:08;;;;;;;19.10;11.20;;;;;;;2.89;73.44;101515.10;88883;1284;96816;-79
2022/02/26 06:37:14;;;;;;;17.40;10.70;;;;;;;2.87;73.19;101518.73;88864;1283;77224;-79
2022/02/26 06:39:20;;;;;;;19.80;10.80;;;;;;;2.94;73.08;101523.09;88881;1284;82488;-78
2022/02/26 06:41:26;;;;;;;19.20;11.70;;;;;;;2.98;72.88;101523.10;88874;1284;99235;-79
2022/02/26 06:43:31;;;;;;;21.80;12.10;;;;;;;3.02;72.86;101531.09;88864;1284;89316;-79
2022/02/26 06:45:40;;;;;;;19.50;10.40;;;;;;;3.07;72.74;101532.59;88869;1284;92851;-78
2022/02/26 06:47:49;;;;;;;18.50;11.00;;;;;;;3.16;72.66;101535.33;88877;1283;78276;-65
2022/02/26 06:49:55;;;;;;;22.40;12.20;;;;;;;3.29;72.40;101540.20;88871;1284;81480;-64
2022/02/26 06:52:01;;;;;;;20.10;11.30;;;;;;;3.52;72.53;101544.49;88856;1284;98657;-64
2022/02/26 06:54:06;;;;;;;20.60;12.20;;;;;;;3.89;72.31;101548.92;88843;1284;88508;-65
2022/02/26 06:56:16;;;;;;;20.60;12.00;;;;;;;4.31;72.29;101546.73;88840;1284;95720;-64
2022/02/26 06:58:21;;;;;;;22.20;12.90;;;;;;;4.64;71.98;101550.97;88843;1284;76849;-79
2022/02/26 07:00:31;;;;;;;22.00;12.80;;;;;;;4.87;71.70;101552.67;88793;1285;80657;-79
2022/02/26 07:02:37;;;;;;;20.00;11.40;;;;;;;4.99;71.55;101554.91;88868;1284;99692;-64
2022/02/26 07:04:43;;;;;;;18.50;11.20;;;;;;;5.06;70.98;101557.17;88850;1284;87825;-65
2022/02/26 07:06:52;;;;;;;20.60;11.80;;;;;;;5.02;70.60;101561.44;88847;1284;96776;-64
2022/02/26 07:08:57;;;;;;;18.80;11.40;;;;;;;4.92;70.53;101567.03;88856;1284;78286;-64
2022/02/26 07:11:03;;;;;;;19.90;11.30;;;;;;;5.20;70.80;101567.04;88869;1284;83105;-64
2022/02/26 07:13:09;;;;;;;17.90;10.70;;;;;;;6.23;70.94;101567.42;88853;1284;102021;-64
2022/02/26 07:15:15;;;;;;;17.10;9.90;;;;;;;7.18;69.88;101570.66;89003;1282;89503;-64
2022/02/26 07:17:21;;;;;;;17.20;10.50;;;;;;;7.56;69.39;101574.34;88824;1284;94789;-65
2022/02/26 07:19:26;;;;;;;18.00;10.60;;;;;;;7.68;69.30;101576.44;88859;1284;78801;-64
2022/02/26 07:21:33;;;;;;;17.70;9.70;;;;;;;8.26;69.27;101575.98;88878;1283;80660;-64
2022/02/26 07:23:39;;;;;;;14.80;9.00;;;;;;;8.96;68.18;101570.77;88867;1283;101204;-64
2022/02/26 07:25:45;;;;;;;17.00;9.70;;;;;;;9.78;68.01;101570.13;88898;1284;88797;-65
2022/02/26 07:27:51;;;;;;;14.30;10.00;;;;;;;10.92;66.94;101572.13;88886;1284;95789;-76
2022/02/26 07:29:57;;;;;;;15.40;9.30;;;;;;;11.60;66.04;101576.42;88866;1284;78716;-79
2022/02/26 07:32:04;;;;;;;12.70;9.10;;;;;;;12.39;64.98;101577.30;88871;1284;81841;-78
2022/02/26 07:34:10;;;;;;;13.00;9.60;;;;;;;13.20;64.21;101578.24;88878;1284;98191;-79
2022/02/26 07:36:18;;;;;;;12.50;8.50;;;;;;;13.79;62.50;101580.43;88903;1283;88324;-80
2022/02/26 07:38:24;;;;;;;16.60;9.90;;;;;;;14.13;61.45;101579.16;88853;1283;95135;-64
2022/02/26 07:40:30;;;;;;;15.10;10.00;;;;;;;14.26;60.43;101584.14;88795;1284;79870;-63
2022/02/26 07:42:36;;;;;;;15.70;9.90;;;;;;;14.41;59.95;101583.91;88888;1283;80094;-64
2022/02/26 07:44:44;;;;;;;16.20;10.30;;;;;;;14.83;59.65;101585.50;88849;1284;100754;-64
2022/02/26 07:46:53;;;;;;;15.40;9.30;;;;;;;15.40;58.81;101587.16;88854;1284;89927;-67
2022/02/26 07:48:59;;;;;;;15.20;10.00;;;;;;;15.82;57.56;101587.73;88840;1284;94275;-65
2022/02/26 07:51:05;;;;;;;12.00;9.10;;;;;;;16.49;56.65;101586.81;88862;1284;78177;-64
2022/02/26 07:53:11;;;;;;;14.30;10.10;;;;;;;16.45;55.27;101585.17;88881;1283;81094;-73
2022/02/26 07:55:19;;;;;;;14.40;9.80;;;;;;;16.37;55.19;101585.12;88848;1284;99900;-74
2022/02/26 07:57:25;;;;;;;16.80;10.90;;;;;;;17.13;54.53;101586.30;88846;1285;87968;-72
2022/02/26 07:59:31;;;;;;;13.50;9.30;;;;;;;18.13;53.94;101584.53;88843;1284;94397;-75
2022/02/26 08:01:36;;;;;;;13.80;9.80;;;;;;;19.27;53.09;101586.55;88841;1284;78869;-73
2022/02/26 08:03:41;;;;;;;13.90;9.20;;;;;;;19.90;52.60;101590.77;88882;1284;82493;-65
2022/02/26 08:05:47;;;;;;;11.40;9.20;;;;;;;20.14;50.91;101594.95;88839;1284;99213;-63
2022/02/26 08:07:53;;;;;;;12.80;8.80;;;;;;;20.59;49.84;101597.36;88862;1284;88026;-64
2022/02/26 08:09:59;;;;;;;12.90;8.90;;;;;;;20.97;48.83;101600.39;88805;1285;95331;-64
2022/02/26 08:12:06;;;;;;;13.30;9.70;;;;;;;21.09;47.79;101600.70;88881;1284;79777;-71
2022/02/26 08:14:14;;;;;;;11.60;8.80;;;;;;;20.99;46.19;101599.78;88879;1284;83090;-78
2022/02/26 08:16:20;;;;;;;11.00;7.90;;;;;;;21.21;46.52;101599.72;88831;1284;100872;-78
2022/02/26 08:18:26;;;;;;;12.10;8.90;;;;;;;21.91;45.78;101598.52;88832;1284;90805;-63
2022/02/26 08:20:31;;;;;;;10.40;8.70;;;;;;;22.13;44.66;101596.91;88825;1284;95329;-65
2022/02/26 08:22:42;;;;;;;10.50;8.10;;;;;;;21.37;44.11;101603.86;88811;1284;78013;-65
2022/02/26 08:24:48;;;;;;;10.30;7.80;;;;;;;20.14;44.05;101607.73;88874;1284;83751;-65
2022/02/26 08:26:53;;;;;;;10.10;8.00;;;;;;;18.96;43.89;101613.86;88838;1284;101258;-66
2022/02/26 08:28:59;;;;;;;10.00;8.30;;;;;;;17.90;44.41;101618.27;88867;1284;87685;-65
2022/02/26 08:31:05;;;;;;;10.40;7.80;;;;;;;16.90;44.71;101627.90;88851;1284;95929;-67
2022/02/26 08:33:11;;;;;;;10.70;7.80;;;;;;;16.11;45.06;101629.78;88852;1284;78549;-65
2022/02/26 08:35:20;;;;;;;11.30;8.00;;;;;;;15.27;45.18;101637.13;88852;1284;81022;-65
2022/02/26 08:37:29;;;;;;;12.30;8.40;;;;;;;14.30;45.92;101646.28;88862;1284;101394;-79
2022/02/26 08:39:35;;;;;;;11.40;8.10;;;;;;;13.77;46.66;101651.09;88888;1284;86253;-72
2022/02/26 08:41:41;;;;;;;11.40;8.10;;;;;;;13.22;47.18;101652.42;88855;1284;94013;-78
2022/02/26 08:43:47;;;;;;;10.60;8.20;;;;;;;12.64;47.50;101666.80;88857;1284;77839;-64
2022/02/26 08:45:53;;;;;;;13.20;8.60;;;;;;;12.28;47.99;101672.29;88883;1284;79895;-65
2022/02/26 08:47:59;;;;;;;12.70;8.40;;;;;;;12.04;48.28;101670.31;88864;1284;99075;-65
2022/02/26 08:50:09;;;;;;;11.50;8.70;;;;;;;11.80;48.72;101671.70;88815;1284;89236;-64
2022/02/26 08:52:15;;;;;;;12.80;9.20;;;;;;;11.68;49.12;101670.67;88872;1284;94235;-78
2022/02/26 08:54:22;;;;;;;12.10;8.50;;;;;;;11.59;49.42;101675.16;88845;1284;77149;-77
2022/02/26 08:56:28;;;;;;;11.90;8.20;;;;;;;11.44;49.55;101678.44;88819;1285;82823;-76
2022/02/26 08:58:33;;;;;;;13.40;9.20;;;;;;;11.44;49.85;101677.55;88823;1284;100593;-64
2022/02/26 09:00:39;;;;;;;11.40;8.30;;;;;;;11.42;50.01;101674.95;88850;1284;87026;-64
2022/02/26 09:02:46;;;;;;;12.90;8.90;;;;;;;11.53;50.20;101679.17;88806;1284;93347;-65
2022/02/26 09:04:53;;;;;;;15.10;9.30;;;;;;;11.87;50.65;101684.98;88837;1283;78468;-65
2022/02/26 09:07:03;;;;;;;10.70;8.60;;;;;;;12.63;50.71;101684.92;88878;1284;80364;-64
2022/02/26 09:09:09;;;;;;;13.70;8.40;;;;;;;13.57;50.33;101679.95;88865;1284;100096;-78
2022/02/26 09:11:18;;;;;;;14.50;8.50;;;;;;;14.56;50.00;101686.09;88878;1284;89920;-79
2022/02/26 09:13:24;;;;;;;12.10;8.00;;;;;;;15.30;49.34;101685.23;88872;1284;95492;-65
2022/02/26 09:15:33;;;;;;;11.30;7.00;;;;;;;16.04;48.66;101684.39;88862;1284;81435;-79
2022/02/26 09:17:39;;;;;;;10.70;7.70;;;;;;;16.63;47.54;101688.81;88855;1284;82099;-80
2022/02/26 09:19:45;;;;;;;11.40;7.90;;;;;;;17.39;46.31;101691.59;88791;1285;101444;-80
2022/02/26 09:21:53;;;;;;;9.90;6.30;;;;;;;17.97;45.71;101692.89;88902;1284;87779;-80
2022/02/26 09:24:03;;;;;;;9.50;6.50;;;;;;;18.53;45.15;101696.08;88847;1284;95065;-65
2022/02/26 09:26:09;;;;;;;9.60;6.60;;;;;;;18.82;44.36;101700.13;88800;1284;78386;-65
2022/02/26 09:28:17;;;;;;;11.10;7.50;;;;;;;19.24;43.58;101701.46;88853;1284;81551;-80
2022/02/26 09:30:24;;;;;;;10.10;6.80;;;;;;;19.86;43.04;101702.86;88879;1284;98497;-81
2022/02/26 09:32:31;;;;;;;8.70;6.20;;;;;;;19.99;42.31;101710.91;88850;1284;89344;-80
2022/02/26 09:34:36;;;;;;;8.30;6.20;;;;;;;19.12;41.95;101714.66;88860;1283;95074;-80
2022/02/26 09:36:46;;;;;;;9.90;5.80;;;;;;;17.93;42.17;101727.95;88620;1287;78264;-80
2022/02/26 09:38:52;;;;;;;9.60;6.30;;;;;;;16.84;42.17;101737.23;88866;1284;83814;-65
2022/02/26 09:41:04;;;;;;;10.80;7.10;;;;;;;15.96;42.72;101735.28;88796;1284;102248;-64
2022/02/26 09:43:11;;;;;;;10.70;8.50;;;;;;;15.23;43.24;101742.16;88907;1284;89303;-65
2022/02/26 09:45:18;;;;;;;13.70;7.20;;;;;;;14.61;43.98;101745.01;88910;1284;94339;-64
2022/02/26 09:47:31;;;;;;;8.90;6.60;;;;;;;14.18;44.68;101750.47;88948;1284;79052;-76